Terminal Aerodrome Forecast
Issued by NWS Cleveland, OH

Home | Current Version | Previous Version | Graphics & Text | Print | Product List | Glossary Off
Versions: 1 2 3 4 5 6 7 8 9 10 11 12 13 14 15 16 17 18 19 20 21 22 23 24 25 26 27 28 29 30 31

000
FTUS41 KCLE 011700
TAFCLE
TAF
KCLE 011720Z 0118/0224 21006KT P6SM SCT035
     FM012000 36006KT P6SM SCT040
     FM020400 14003KT P6SM VCSH BKN050 OVC200
     FM021000 18003KT P6SM SCT050 OVC100=

USA.gov is the U.S. government's official web portal to all federal, state and local government web resources and services.